Airfield :







YOU CAN JOIN US ON...

 
LOGIN :

Register | Disclaimer

   EN    FR    IT 

 









Legend :    VFR   Marginal VFR   IFR   Intensive IFR   Very Intensive IFR
Visi :
Ceiling :
>= 8 km
>= 3000ft
5 to 8 km
1000 to 3000 ft
1500m to 5 km
500 to 1000 ft
800 to 1500m
200 to 500 ft
< 800m
< 200 ft
Symbols :   Thunderstorms  Fog  Heavy snow  Heavy precipitations  Wind > 20 kt






- Airport Elevation : 241 ft
- IATA code : CEF


KCEF - Westover ARB/Metropolitan

CURRENT METAR :
  • 191356Z 29016G22KT 10SM SCT048 04/M07 A3011 RMK AO2A PK WND 30027/22 SLP205 T00361067

EXPIRED METARs :
  • 191256Z 31016KT 10SM FEW041 FEW100 03/M06 A3009 RMK AO2A PK WND 29028/19 SLP198 T00251056

TAF TAF KCEF
Valid from the 19 at 11:00 until the 20 at 17:00 UTC


191100Z 1911/2017 29012G18KT 9999 BKN120 520109 QNH3005INS
TEMPO 1911/1914 31015G25KT 520004
BECMG 1913/1914 31015G25KT 9999 SCT045 520004 QNH3014INS
TEMPO 1914/1923 30025G35KT 530006
BECMG 1923/1924 30010G15KT 9999 FEW035 510005 QNH3032INS
TEMPO 2000/2006 31015G25KT 520005
BECMG 2005/2006 31009KT 9999 BKN020 BKN150 QNH3039INS
BECMG 2014/2015 29010G15KT 9999 BKN025 BKN150 520505 QNH3043INS
TEMPO 2015/2017 30015G25KT 520004 TX03/1911Z TNM10/2011Z



MET'MAP, your aeronautical weather chart ! - Copyright ORBIFLY December 2007 - Disclaimer

ORBIFLY MET'MAP TEAM :

Programming & Development : Alexandra Zaïnal
Concept & original design : Baudouin d'Aumeries
Assistance for programming : Marc-Olivier Méhu
Technical & hardware support : Manuel Goepfert

Contact : metmap@orbifly.com




SOURCES & CREDITS :

   NOAA